FAOB

Overberg Airport

Overberg, South Africa
METAR FAOB 131100Z AUTO 21014KT //// // ////// 23/09 Q1020
Observed Flight Rules
Dec-13 @ 11:00 UTC (an hour ago)
Wind
210° at 14 knots
Temperatures Readings
Current 23°C / 73°F
Dewpoint 9°C / 48°F
Humidity 41%
Altimeter 30.12" Hg
Pressure 1020 hPa
Elevation 75
METAR FAOB 131100Z AUTO 21014KT //// // ////// 23/09 Q1020
Observed Flight Rules
Dec-13 @ 11:00 UTC
(an hour ago)
Wind
210° at 14 knots
Temperature Dewpoint
23°C / 73°F 9°C / 48°F
Humidity Altimeter Pressure
41% 30.12" Hg 1020 hPa